INFORMAÇÕES DO AERODROMO
Icao Aerodromo KSDF Nome do Aerodromo Louisville International Standiford Field Cidade Louisville
Código GPS KSDF Elevação Média 501 ft Tipo de Aerodromo Aeroporto Grande Porte

INFORMAÇÃO DE PISTA
Pista 11 Comprimento da Pista 7250 ft Largura da Pista 150 ft
Elevação da Pista 477 ft Distância de Area de Escape da Pista 0 ft Orientação da Pista 111
Pista 29 Comprimento da Pista 7250 ft Largura da Pista 150 ft
Elevação da Pista 480 ft Distância de Area de Escape da Pista 0 ft Orientação da Pista 291
Pista 17L Comprimento da Pista 8579 ft Largura da Pista 150 ft
Elevação da Pista 499 ft Distância de Area de Escape da Pista 329 ft Orientação da Pista 165
Pista 35R Comprimento da Pista 8579 ft Largura da Pista 150 ft
Elevação da Pista 472 ft Distância de Area de Escape da Pista 450 ft Orientação da Pista 345
Pista 17R Comprimento da Pista 10850 ft Largura da Pista 150 ft
Elevação da Pista 486 ft Distância de Area de Escape da Pista 850 ft Orientação da Pista 165
Pista 35L Comprimento da Pista 10850 ft Largura da Pista 150 ft
Elevação da Pista 461 ft Distância de Area de Escape da Pista 0 ft Orientação da Pista 345

FREQUÊNCIAS DO AERODROMO
Tipo APP Nome APP Frequência 123.675 MHZ
Tipo ATIS Nome ATIS Frequência 118.725 MHZ
Tipo CLD Nome CLNC DEL Frequência 126.1 MHZ
Tipo DEP Nome DEP Frequência 123.675 MHZ
Tipo GND Nome GND Frequência 121.7 MHZ
Tipo OPS Nome ANG OPS Frequência 26.81 MHZ
Tipo TWR Nome TWR Frequência 124.2 MHZ
Tipo UNIC Nome UNICOM Frequência 122.95 MHZ

INFORMAÇÕES DE NAVEGAÇÃO PRÓXIMO AO AERODROMO

Informações de Meteorologia(METAR atual)
METAR DE KSDF
ADDS - METARS form results

(1827 UTC 22 July 2018)
Data provider http://aviationweather.gov/adds/metars/
 
METAR text: KSDF 221756Z 30005KT 10SM FEW025 BKN043 BKN060 BKN250 23/21 A2974 RMK AO2 RAB22E49B54E56 SLP066 P0018 60018 T02280211 10244 20217 58001
Conditions at: KSDF (LOUISVILLE , KY, US) observed 1756 UTC 22 July 2018
Temperature: 22.8°C (73°F)
Dewpoint: 21.1°C (70°F) [RH = 90%]
Pressure (altimeter): 29.74 inches Hg (1007.2 mb)
[Sea-level pressure: 1006.6 mb]
Winds: from the WNW (300 degrees) at 6 MPH (5 knots; 2.6 m/s)
Visibility: 10 or more miles (16+ km)
Ceiling: 4300 feet AGL
Clouds: few clouds at 2500 feet AGL
broken clouds at 4300 feet AGL
broken clouds at 6000 feet AGL
broken clouds at 25000 feet AGL
Weather: no significant weather observed at this time

METAR text: KSDF 221749Z 29003KT 4SM R35R/3500VP6000FT BR FEW018 BKN042 BKN055 BKN250 22/21 A2974 RMK AO2 RAB22E49 P0018 T02220211
Conditions at: KSDF (LOUISVILLE , KY, US) observed 1749 UTC 22 July 2018
Temperature: 22.2°C (72°F)
Dewpoint: 21.1°C (70°F) [RH = 93%]
Pressure (altimeter): 29.74 inches Hg (1007.2 mb)
Winds: from the WNW (290 degrees) at 3 MPH (3 knots; 1.6 m/s)
Visibility: 4 miles (6 km)
Ceiling: 4200 feet AGL
Clouds: few clouds at 1800 feet AGL
broken clouds at 4200 feet AGL
broken clouds at 5500 feet AGL
broken clouds at 25000 feet AGL
Weather: BR  (mist)

METAR text: KSDF 221742Z 36003KT 1 1/4SM R35R/3000V6000FT RA BR FEW021 BKN042 OVC055 22/21 A2974 RMK AO2 RAB22 P0015 T02220211
Conditions at: KSDF (LOUISVILLE , KY, US) observed 1742 UTC 22 July 2018
Temperature: 22.2°C (72°F)
Dewpoint: 21.1°C (70°F) [RH = 93%]
Pressure (altimeter): 29.74 inches Hg (1007.2 mb)
Winds: from the N (360 degrees) at 3 MPH (3 knots; 1.6 m/s)
Visibility: 1.25 miles (2.01 km)
Ceiling: 4200 feet AGL
Clouds: few clouds at 2100 feet AGL
broken clouds at 4200 feet AGL
overcast cloud deck at 5500 feet AGL
Weather: RA BR  (rain, mist)

METAR text: KSDF 221735Z 36007KT 1SM R35R/3000VP6000FT +RA BR FEW021 BKN029 OVC055 22/21 A2974 RMK AO2 RAB22 P0012 T02220211
Conditions at: KSDF (LOUISVILLE , KY, US) observed 1735 UTC 22 July 2018
Temperature: 22.2°C (72°F)
Dewpoint: 21.1°C (70°F) [RH = 93%]
Pressure (altimeter): 29.74 inches Hg (1007.2 mb)
Winds: from the N (360 degrees) at 8 MPH (7 knots; 3.6 m/s)
Visibility: 1.00 miles (1.61 km)
Ceiling: 2900 feet AGL
Clouds: few clouds at 2100 feet AGL
broken clouds at 2900 feet AGL
overcast cloud deck at 5500 feet AGL
Weather: +RA BR  (heavy rain, mist)

METAR text: KSDF 221729Z 35009KT 1 3/4SM R35R/4000VP6000FT +RA BR FEW019 BKN035 OVC060 22/21 A2974 RMK AO2 RAB22 P0004 T02220211
Conditions at: KSDF (LOUISVILLE , KY, US) observed 1729 UTC 22 July 2018
Temperature: 22.2°C (72°F)
Dewpoint: 21.1°C (70°F) [RH = 93%]
Pressure (altimeter): 29.74 inches Hg (1007.2 mb)
Winds: from the N (350 degrees) at 10 MPH (9 knots; 4.7 m/s)
Visibility: 1.75 miles (2.82 km)
Ceiling: 3500 feet AGL
Clouds: few clouds at 1900 feet AGL
broken clouds at 3500 feet AGL
overcast cloud deck at 6000 feet AGL
Weather: +RA BR  (heavy rain, mist)

Forecast for: KSDF (LOUISVILLE , KY, US)
Text: KSDF 221734Z 2218/2324 29006KT P6SM -SHRA SCT024 OVC050
Forecast period: 1800 to 2100 UTC 22 July 2018
Forecast type: FROM: standard forecast or significant change
Winds: from the WNW (290 degrees) at 7 MPH (6 knots; 3.1 m/s)
Visibility: 6 or more miles (10+ km)
Ceiling: 5000 feet AGL
Clouds: scattered clouds at 2400 feet AGL
overcast cloud deck at 5000 feet AGL
Weather: -SHRA  (light rain showers)
Text: TEMPO 2218/2220 4SM RA BR BKN024
Forecast period: 1800 to 2000 UTC 22 July 2018
Forecast type: TEMPORARY: The following changes expected for less than half the time period
Visibility: 4 miles (6 km)
Ceiling: 2400 feet AGL
Clouds: broken clouds at 2400 feet AGL
Weather: RA BR  (rain, mist)
Text: FM222100 31007KT P6SM VCSH BKN035 OVC060
Forecast period: 2100 UTC 22 July 2018 to 0800 UTC 23 July 2018
Forecast type: FROM: standard forecast or significant change
Winds: from the NW (310 degrees) at 8 MPH (7 knots; 3.6 m/s)
Visibility: 6 or more miles (10+ km)
Ceiling: 3500 feet AGL
Clouds: broken clouds at 3500 feet AGL
overcast cloud deck at 6000 feet AGL
Weather: VCSH  (showers in vicinity)
Text: FM230800 36006KT P6SM BKN025
Forecast period: 0800 to 1000 UTC 23 July 2018
Forecast type: FROM: standard forecast or significant change
Winds: from the N (360 degrees) at 7 MPH (6 knots; 3.1 m/s)
Visibility: 6 or more miles (10+ km)
Ceiling: 2500 feet AGL
Clouds: broken clouds at 2500 feet AGL
Weather: no significant weather forecast for this period
Text: FM231000 36006KT P6SM BKN014 OVC027
Forecast period: 1000 to 1800 UTC 23 July 2018
Forecast type: FROM: standard forecast or significant change
Winds: from the N (360 degrees) at 7 MPH (6 knots; 3.1 m/s)
Visibility: 6 or more miles (10+ km)
Ceiling: 1400 feet AGL
Clouds: broken clouds at 1400 feet AGL
overcast cloud deck at 2700 feet AGL
Weather: no significant weather forecast for this period
Text: FM231800 25008KT P6SM VCSH SCT027 BKN040
Forecast period: 1800 UTC 23 July 2018 to 0000 UTC 24 July 2018
Forecast type: FROM: standard forecast or significant change
Winds: from the WSW (250 degrees) at 9 MPH (8 knots; 4.2 m/s)
Visibility: 6 or more miles (10+ km)
Ceiling: 4000 feet AGL
Clouds: scattered clouds at 2700 feet AGL
broken clouds at 4000 feet AGL
Weather: VCSH  (showers in vicinity)

MAPA DO AERODROMO


Desenvolvido por Virtual Airlines Manager




Modificado por Servidor Brasil Amigos